Time;durP1;ratioP1;P1;durP2;ratioP2;P2;SDS_P1;SDS_P2;PMS_P1;PMS_P2;Temp;Humidity;BMP_temperature;BMP_pressure;BME280_temperature;BME280_humidity;BME280_pressure;Samples;Min_cycle;Max_cycle;Signal;HPM_P1;HPM_P2
2023/02/28 00:01:25;;;;;;;0.50;0.50;;;;;;;1.43;89.39;102112.78;5025650;28;20029;-66
2023/02/28 00:03:51;;;;;;;0.40;0.40;;;;;;;1.35;89.29;102103.00;5025842;28;20029;-66
2023/02/28 00:06:17;;;;;;;0.50;0.50;;;;;;;1.38;89.31;102109.06;5025481;28;20033;-66
2023/02/28 00:08:42;;;;;;;0.50;0.50;;;;;;;1.38;89.27;102109.06;5025781;28;20040;-66
2023/02/28 00:11:11;;;;;;;0.57;0.57;;;;;;;1.40;89.42;102110.06;5025760;28;20045;-66
2023/02/28 00:13:38;;;;;;;0.50;0.50;;;;;;;1.41;89.63;102105.03;5025821;28;20038;-67
2023/02/28 00:16:07;;;;;;;0.50;0.50;;;;;;;1.40;89.47;102103.28;5025800;28;20044;-67
2023/02/28 00:18:33;;;;;;;0.50;0.50;;;;;;;1.39;89.42;102104.03;5025587;28;20083;-67
2023/02/28 00:20:59;;;;;;;0.50;0.50;;;;;;;1.40;89.34;102103.28;5025401;28;20108;-66
2023/02/28 00:23:25;;;;;;;0.50;0.50;;;;;;;1.33;89.37;102101.13;5025679;28;20064;-67
2023/02/28 00:25:51;;;;;;;0.50;0.50;;;;;;;1.39;89.55;102105.75;5024097;28;20089;-66
2023/02/28 00:28:17;;;;;;;0.50;0.50;;;;;;;1.42;89.52;102105.91;5025744;28;20052;-66
2023/02/28 00:30:42;;;;;;;0.50;0.50;;;;;;;1.39;89.59;102105.75;5025483;28;20029;-67
2023/02/28 00:33:08;;;;;;;0.50;0.50;;;;;;;1.44;90.12;102105.19;5025623;28;20463;-67
2023/02/28 00:35:33;;;;;;;0.50;0.50;;;;;;;1.41;89.65;102109.25;5024055;28;20026;-67
2023/02/28 00:37:59;;;;;;;0.50;0.50;;;;;;;1.39;89.28;102106.59;5025563;28;20029;-67
2023/02/28 00:40:24;;;;;;;0.52;0.52;;;;;;;1.43;89.48;102100.88;5025390;28;20026;-67
2023/02/28 00:42:49;;;;;;;1.95;1.85;;;;;;;1.42;89.66;102103.34;5025789;28;20029;-66
2023/02/28 00:45:15;;;;;;;0.50;0.50;;;;;;;1.40;89.53;102105.84;5025333;28;20021;-66
2023/02/28 00:47:40;;;;;;;0.50;0.50;;;;;;;1.36;89.52;102106.44;5023936;28;20026;-66
2023/02/28 00:50:07;;;;;;;0.50;0.50;;;;;;;1.32;89.57;102099.38;5025257;28;20026;-66
2023/02/28 00:52:32;;;;;;;0.50;0.50;;;;;;;1.30;89.79;102101.84;5028497;28;20038;-66
2023/02/28 00:54:58;;;;;;;0.50;0.50;;;;;;;1.32;89.71;102102.84;5028161;28;20058;-70
2023/02/28 00:57:23;;;;;;;0.50;0.50;;;;;;;1.34;89.70;102095.25;5025237;28;20104;-66
2023/02/28 00:59:48;;;;;;;0.60;0.60;;;;;;;1.34;89.77;102093.53;5025093;28;20022;-66
2023/02/28 01:02:14;;;;;;;0.50;0.50;;;;;;;1.34;89.78;102101.22;5025156;28;20489;-66
2023/02/28 01:04:39;;;;;;;0.50;0.50;;;;;;;1.34;89.71;102101.22;5025546;28;20084;-66
2023/02/28 01:07:05;;;;;;;0.55;0.55;;;;;;;1.31;89.55;102100.19;5029190;28;20026;-70
2023/02/28 01:09:30;;;;;;;0.50;0.50;;;;;;;1.33;89.78;102096.03;5028956;28;20041;-66
2023/02/28 01:11:56;;;;;;;0.60;0.60;;;;;;;1.34;89.86;102092.69;5029089;28;20032;-66
2023/02/28 01:14:22;;;;;;;0.50;0.50;;;;;;;1.33;89.68;102093.47;5029199;28;20026;-66
2023/02/28 01:16:47;;;;;;;0.50;0.50;;;;;;;1.36;89.69;102102.22;5029094;28;20021;-67
2023/02/28 01:19:13;;;;;;;0.50;0.50;;;;;;;1.38;89.80;102097.16;5028428;28;20056;-67
2023/02/28 01:21:38;;;;;;;0.57;0.57;;;;;;;1.38;89.65;102094.63;5029026;28;20452;-67
2023/02/28 01:24:04;;;;;;;0.52;0.52;;;;;;;1.39;89.70;102087.84;5028931;28;20026;-66
2023/02/28 01:26:30;;;;;;;0.50;0.50;;;;;;;1.40;89.83;102090.47;5029003;28;20036;-66
2023/02/28 01:28:56;;;;;;;0.50;0.50;;;;;;;1.41;89.73;102079.44;5028882;28;20017;-66
2023/02/28 01:31:23;;;;;;;0.57;0.57;;;;;;;1.45;89.69;102080.50;5028480;28;20109;-66
2023/02/28 01:33:49;;;;;;;0.50;0.50;;;;;;;1.46;89.80;102082.25;5028581;28;20056;-67
2023/02/28 01:36:17;;;;;;;0.60;0.60;;;;;;;1.46;89.71;102078.03;5028581;28;20022;-67
2023/02/28 01:38:43;;;;;;;0.50;0.50;;;;;;;1.48;89.50;102089.25;5027205;28;20458;-67
2023/02/28 01:41:16;;;;;;;0.50;0.50;;;;;;;1.48;89.73;102081.56;5028487;28;20058;-69
2023/02/28 01:43:42;;;;;;;0.50;0.50;;;;;;;1.52;89.86;102077.47;5028689;28;20141;-66
2023/02/28 01:46:07;;;;;;;1.05;1.05;;;;;;;1.50;89.73;102067.94;5028421;28;20049;-66
2023/02/28 01:48:36;;;;;;;0.50;0.50;;;;;;;1.54;89.79;102072.44;5027108;28;20088;-67
2023/02/28 01:51:08;;;;;;;0.50;0.50;;;;;;;1.52;89.70;102068.94;5026861;28;20030;-66
2023/02/28 01:53:45;;;;;;;0.50;0.50;;;;;;;1.50;90.04;102068.84;5027292;28;20069;-66
2023/02/28 01:56:20;;;;;;;0.50;0.50;;;;;;;1.53;90.07;102061.34;5027050;28;20041;-66
2023/02/28 01:58:47;;;;;;;0.40;0.40;;;;;;;1.60;90.15;102055.75;5027054;28;20108;-66
2023/02/28 02:01:21;;;;;;;0.50;0.50;;;;;;;1.70;90.15;102067.38;5026881;28;20026;-66
2023/02/28 02:04:04;;;;;;;0.50;0.50;;;;;;;1.74;90.20;102065.88;5027169;28;20105;-66
2023/02/28 02:06:36;;;;;;;0.50;0.50;;;;;;;1.73;90.29;102057.31;5026812;28;20410;-66
2023/02/28 02:09:03;;;;;;;0.40;0.40;;;;;;;1.75;90.21;102065.06;5026809;28;20022;-66
2023/02/28 02:11:29;;;;;;;0.43;0.43;;;;;;;1.75;90.22;102059.06;5026701;28;20029;-66
2023/02/28 02:14:18;;;;;;;0.50;0.50;;;;;;;1.73;90.19;102056.41;5027031;28;20045;-66
2023/02/28 02:17:10;;;;;;;0.50;0.50;;;;;;;1.75;90.17;102059.06;5026598;28;20026;-66
2023/02/28 02:19:41;;;;;;;0.70;0.70;;;;;;;1.74;90.01;102053.06;5026388;28;20022;-66
2023/02/28 02:22:40;;;;;;;0.50;0.50;;;;;;;1.73;90.07;102057.31;5026665;28;20021;-66
2023/02/28 02:25:31;;;;;;;0.50;0.50;;;;;;;1.73;90.04;102056.41;5025445;28;20116;-66
2023/02/28 02:28:23;;;;;;;0.50;0.50;;;;;;;1.70;89.96;102054.56;5026481;28;20191;-66
2023/02/28 02:31:13;;;;;;;0.50;0.50;;;;;;;1.67;89.88;102051.84;5026419;28;20029;-66
2023/02/28 02:34:13;;;;;;;0.50;0.50;;;;;;;1.54;89.69;102032.38;5026438;28;20036;-66
2023/02/28 02:36:49;;;;;;;0.50;0.50;;;;;;;1.60;89.72;102048.06;5009211;28;20387;-66
2023/02/28 02:39:43;;;;;;;0.50;0.50;;;;;;;1.58;89.65;102041.97;5026358;28;20388;-66
2023/02/28 02:42:16;;;;;;;0.50;0.50;;;;;;;1.57;89.55;102042.78;5026366;28;20026;-66
2023/02/28 02:44:55;;;;;;;0.50;0.50;;;;;;;1.55;89.58;102038.38;5026367;28;20025;-66
2023/02/28 02:47:25;;;;;;;0.50;0.50;;;;;;;1.54;89.57;102034.03;5026320;28;20123;-66
2023/02/28 02:49:58;;;;;;;0.50;0.50;;;;;;;1.55;89.46;102035.81;5025960;28;20041;-66
2023/02/28 02:52:36;;;;;;;0.50;0.50;;;;;;;1.54;89.48;102036.59;4985624;28;1174631;-66
2023/02/28 02:55:03;;;;;;;0.45;0.45;;;;;;;1.49;89.68;102026.09;5027243;28;20282;-66
2023/02/28 02:57:50;;;;;;;0.50;0.50;;;;;;;1.56;89.49;102029.88;5025888;28;20022;-66
2023/02/28 03:00:20;;;;;;;0.43;0.43;;;;;;;1.59;89.72;102024.94;5026962;28;20026;-66
2023/02/28 03:02:47;;;;;;;0.50;0.50;;;;;;;1.59;89.76;102027.50;5026916;28;20022;-67
2023/02/28 03:05:32;;;;;;;0.50;0.50;;;;;;;1.60;89.81;102029.25;5025211;28;20089;-68
2023/02/28 03:07:57;;;;;;;0.50;0.50;;;;;;;1.59;89.59;102024.94;5027053;28;20025;-67
2023/02/28 03:10:33;;;;;;;0.60;0.60;;;;;;;1.47;89.30;102028.56;5026776;28;20080;-66
2023/02/28 03:13:34;;;;;;;0.50;0.50;;;;;;;1.45;88.86;102030.16;5026879;28;20025;-66
2023/02/28 03:16:15;;;;;;;0.50;0.50;;;;;;;1.39;88.87;102029.81;5026656;28;20021;-66
2023/02/28 03:18:50;;;;;;;0.50;0.50;;;;;;;1.35;89.03;102030.47;5025519;28;20029;-68
2023/02/28 03:21:43;;;;;;;0.50;0.50;;;;;;;1.28;89.11;102036.03;5026420;28;20037;-68
2023/02/28 03:24:11;;;;;;;0.50;0.50;;;;;;;1.23;89.25;102039.22;5026497;28;20081;-68
2023/02/28 03:26:45;;;;;;;0.50;0.50;;;;;;;1.14;89.09;102032.69;5026611;28;20029;-68
2023/02/28 03:29:21;;;;;;;0.50;0.50;;;;;;;1.16;89.21;102037.09;5024912;28;20032;-69
2023/02/28 03:31:58;;;;;;;0.50;0.50;;;;;;;1.15;89.38;102040.44;5026357;28;20040;-68
2023/02/28 03:34:23;;;;;;;0.50;0.50;;;;;;;1.14;89.53;102043.81;5026349;28;20065;-68
2023/02/28 03:36:55;;;;;;;0.50;0.50;;;;;;;1.12;89.48;102037.72;5026529;28;20093;-68
2023/02/28 03:39:23;;;;;;;;;;;;;;;1.11;89.42;102041.06;5026781;28;20037;-69
2023/02/28 03:42:04;;;;;;;0.50;0.50;;;;;;;1.03;89.58;102024.41;5026281;28;19909;-68
2023/02/28 03:44:45;;;;;;;0.60;0.60;;;;;;;0.97;89.28;102038.63;5024986;28;20394;-69
2023/02/28 03:47:25;;;;;;;0.50;0.50;;;;;;;0.90;89.27;102031.38;5025028;28;20034;-69
2023/02/28 03:49:57;;;;;;;0.50;0.50;;;;;;;0.81;89.24;102018.94;5025832;28;20029;-69
2023/02/28 03:52:27;;;;;;;0.50;0.50;;;;;;;0.79;89.20;102024.75;5025835;28;20061;-68
2023/02/28 03:54:56;;;;;;;0.50;0.50;;;;;;;0.73;89.38;102015.06;5024708;28;20026;-69
2023/02/28 03:57:34;;;;;;;0.50;0.50;;;;;;;0.80;89.39;102026.53;5025786;28;20026;-69
2023/02/28 04:00:06;;;;;;;0.50;0.50;;;;;;;0.82;89.63;102037.72;5025845;28;20081;-69
2023/02/28 04:02:32;;;;;;;0.50;0.50;;;;;;;0.84;89.77;102034.47;5025924;28;20041;-69
2023/02/28 04:05:00;;;;;;;0.52;0.52;;;;;;;0.91;90.04;102034.81;5025615;28;20037;-69
2023/02/28 04:07:29;;;;;;;0.50;0.50;;;;;;;0.94;90.10;102035.84;5024462;28;20029;-70
2023/02/28 04:09:54;;;;;;;0.43;0.43;;;;;;;1.00;90.23;102043.03;5024019;28;20378;-69
2023/02/28 04:12:21;;;;;;;0.60;0.60;;;;;;;0.94;90.35;102023.06;5025744;28;20026;-69
2023/02/28 04:14:46;;;;;;;0.50;0.50;;;;;;;1.03;90.23;102039.75;5025736;28;20512;-70
2023/02/28 04:17:11;;;;;;;0.50;0.50;;;;;;;1.05;90.27;102040.72;5027593;28;20049;-69
2023/02/28 04:19:37;;;;;;;0.50;0.50;;;;;;;1.02;90.36;102033.78;5027268;28;20449;-69
2023/02/28 04:22:02;;;;;;;0.60;0.60;;;;;;;0.98;90.23;102032.69;5028031;28;20029;-69
2023/02/28 04:24:28;;;;;;;0.50;0.50;;;;;;;0.99;90.31;102034.47;5027112;28;20028;-68
2023/02/28 04:26:55;;;;;;;0.50;0.50;;;;;;;0.98;90.36;102031.81;5026190;28;20037;-67
2023/02/28 04:29:27;;;;;;;0.50;0.50;;;;;;;0.89;90.30;102027.06;5027992;28;20045;-68
2023/02/28 04:31:53;;;;;;;;;;;;;;;0.93;89.97;102031.56;5025801;28;20389;-69
2023/02/28 04:34:20;;;;;;;0.50;0.50;;;;;;;0.92;90.02;102031.47;5025274;28;19909;-69
2023/02/28 04:36:48;;;;;;;0.50;0.50;;;;;;;0.91;90.27;102025.47;5025541;28;20026;-69
2023/02/28 04:39:15;;;;;;;0.98;0.98;;;;;;;0.96;90.24;102029.16;5023918;28;20161;-69
2023/02/28 04:41:40;;;;;;;0.50;0.50;;;;;;;0.99;90.51;102033.59;5025476;28;20026;-70
2023/02/28 04:44:06;;;;;;;0.50;0.50;;;;;;;1.01;90.61;102039.66;5024115;28;20101;-69
2023/02/28 04:46:31;;;;;;;0.50;0.50;;;;;;;0.99;90.33;102041.28;5025071;28;20470;-69
2023/02/28 04:48:56;;;;;;;0.50;0.50;;;;;;;0.94;90.29;102033.31;5025197;28;20048;-69
2023/02/28 04:51:22;;;;;;;0.95;0.95;;;;;;;0.88;90.30;102025.28;5024870;28;20029;-69
2023/02/28 04:53:48;;;;;;;0.50;0.50;;;;;;;0.88;90.21;102030.41;5023825;28;20148;-69
2023/02/28 04:56:16;;;;;;;0.50;0.50;;;;;;;0.83;90.15;102030.13;5040475;28;20025;-69
2023/02/28 04:58:42;;;;;;;0.50;0.50;;;;;;;0.85;90.42;102018.31;5023743;28;20030;-69
2023/02/28 05:01:32;;;;;;;0.50;0.50;;;;;;;0.89;90.40;102023.63;5024743;28;20018;-69
2023/02/28 05:04:01;;;;;;;0.50;0.50;;;;;;;0.93;90.52;102022.97;5023760;28;20085;-69
2023/02/28 05:06:28;;;;;;;0.50;0.50;;;;;;;0.97;90.36;102024.94;5024956;28;20029;-69
2023/02/28 05:08:54;;;;;;;0.50;0.50;;;;;;;0.86;90.17;102017.53;5023638;28;20061;-69
2023/02/28 05:11:34;;;;;;;0.50;0.50;;;;;;;0.82;89.91;102027.47;5023721;28;20026;-68
2023/02/28 05:14:20;;;;;;;1.05;1.05;;;;;;;0.68;89.70;102032.69;5025358;28;20077;-69
2023/02/28 05:16:45;;;;;;;0.50;0.50;;;;;;;0.54;89.56;102034.44;5024121;28;20034;-68
2023/02/28 05:19:11;;;;;;;0.50;0.50;;;;;;;0.42;89.58;102029.47;5023033;28;20093;-67
2023/02/28 05:21:39;;;;;;;0.50;0.50;;;;;;;0.38;89.79;102024.97;5024289;28;20111;-68
2023/02/28 05:24:08;;;;;;;0.50;0.50;;;;;;;0.36;89.81;102032.56;5023971;28;20030;-67
2023/02/28 05:26:36;;;;;;;0.50;0.50;;;;;;;0.33;89.87;102029.81;5024436;28;20033;-67
2023/02/28 05:29:02;;;;;;;0.50;0.50;;;;;;;0.31;89.83;102026.28;5022810;28;20032;-67
2023/02/28 05:31:27;;;;;;;0.60;0.60;;;;;;;0.29;89.72;102021.88;5024466;28;20025;-66
2023/02/28 05:33:53;;;;;;;0.60;0.60;;;;;;;0.26;89.92;102024.25;5024217;28;20041;-70
2023/02/28 05:36:19;;;;;;;0.50;0.50;;;;;;;0.29;90.00;102024.44;5023896;28;20117;-68
2023/02/28 05:38:49;;;;;;;0.65;0.65;;;;;;;0.31;90.17;102027.94;5022885;28;20057;-68
2023/02/28 05:41:15;;;;;;;0.60;0.60;;;;;;;0.33;90.03;102023.81;5023903;28;20022;-67
2023/02/28 05:43:41;;;;;;;0.60;0.60;;;;;;;0.33;90.17;102005.94;5024095;28;20090;-68
2023/02/28 05:46:08;;;;;;;0.60;0.60;;;;;;;0.40;90.30;102010.59;5024039;28;20033;-68
2023/02/28 05:48:35;;;;;;;0.50;0.50;;;;;;;0.49;90.60;102008.63;5024234;28;20025;-67
2023/02/28 05:51:02;;;;;;;0.50;0.50;;;;;;;0.59;90.71;102002.34;5024948;28;20021;-67
2023/02/28 05:53:28;;;;;;;0.60;0.60;;;;;;;0.70;90.88;102005.53;5027360;28;20034;-67
2023/02/28 05:55:53;;;;;;;0.50;0.50;;;;;;;0.80;90.92;102006.09;5027734;28;20494;-67
2023/02/28 05:58:19;;;;;;;0.50;0.50;;;;;;;0.87;90.81;101997.94;5025902;28;20060;-68
2023/02/28 06:00:45;;;;;;;0.80;0.80;;;;;;;0.89;90.86;101993.81;5027687;28;20033;-68
2023/02/28 06:03:11;;;;;;;0.88;0.88;;;;;;;0.97;90.74;102002.81;5027714;28;20026;-70
2023/02/28 06:05:36;;;;;;;1.13;1.13;;;;;;;1.02;90.82;101999.63;5027488;28;20021;-68
2023/02/28 06:08:01;;;;;;;0.50;0.50;;;;;;;1.05;90.67;101997.25;5027647;28;20101;-68
2023/02/28 06:10:27;;;;;;;0.60;0.60;;;;;;;1.12;90.65;101994.22;5027507;28;20073;-68
2023/02/28 06:12:52;;;;;;;0.50;0.50;;;;;;;1.17;90.55;101997.03;5027644;28;20502;-68
2023/02/28 06:15:18;;;;;;;0.50;0.50;;;;;;;1.18;90.66;101992.00;5026772;28;20482;-70
2023/02/28 06:17:44;;;;;;;0.50;0.50;;;;;;;1.22;90.55;102004.19;5026653;28;20032;-67
2023/02/28 06:20:12;;;;;;;0.50;0.50;;;;;;;1.25;90.41;102008.59;5027688;28;20494;-71
2023/02/28 06:22:38;;;;;;;0.60;0.60;;;;;;;1.29;90.36;101996.84;5027775;28;20068;-72
2023/02/28 06:25:05;;;;;;;0.50;0.50;;;;;;;1.34;90.77;102003.97;5026740;28;20029;-69
2023/02/28 06:27:32;;;;;;;0.50;0.50;;;;;;;1.38;90.74;101999.91;5027650;28;20057;-69
2023/02/28 06:29:57;;;;;;;0.60;0.60;;;;;;;1.44;90.53;102005.38;5027680;28;20018;-70
2023/02/28 06:32:23;;;;;;;0.50;0.50;;;;;;;1.46;90.56;102008.91;5026136;28;20022;-69
2023/02/28 06:34:50;;;;;;;0.50;0.50;;;;;;;1.51;90.52;102016.84;5026111;28;20786;-68
2023/02/28 06:37:15;;;;;;;0.50;0.50;;;;;;;1.52;90.52;102015.16;5026374;28;20018;-70
2023/02/28 06:39:41;;;;;;;0.50;0.50;;;;;;;1.55;90.35;102021.31;5027457;28;20056;-68
2023/02/28 06:42:06;;;;;;;0.50;0.50;;;;;;;1.58;90.42;102031.72;5026044;28;20029;-70
2023/02/28 06:44:35;;;;;;;0.50;0.50;;;;;;;1.56;90.33;102024.78;5025955;28;20026;-69
2023/02/28 06:47:04;;;;;;;0.50;0.50;;;;;;;1.58;90.27;102043.66;5025938;28;20040;-69
2023/02/28 06:49:32;;;;;;;0.50;0.50;;;;;;;1.53;90.10;102043.41;5027269;28;20406;-69
2023/02/28 06:51:57;;;;;;;3.45;3.25;;;;;;;1.56;90.36;102051.25;5027203;28;20033;-70
2023/02/28 06:54:23;;;;;;;0.60;0.60;;;;;;;1.62;90.54;102058.38;5027262;28;20036;-69
2023/02/28 06:56:48;;;;;;;0.50;0.50;;;;;;;1.82;91.18;102056.06;5027230;28;20470;-68
2023/02/28 06:59:14;;;;;;;0.50;0.50;;;;;;;2.29;91.97;102048.25;5027222;28;20040;-68
2023/02/28 07:01:39;;;;;;;0.57;0.57;;;;;;;3.00;92.11;102052.66;5026752;28;20030;-66
2023/02/28 07:04:06;;;;;;;0.50;0.50;;;;;;;3.72;91.25;102044.94;5026342;28;20022;-67
2023/02/28 07:06:32;;;;;;;0.50;0.50;;;;;;;4.55;90.53;102053.72;5026723;28;20050;-67
2023/02/28 07:08:58;;;;;;;0.50;0.50;;;;;;;5.31;90.00;102060.25;5026886;28;20033;-66
2023/02/28 07:11:25;;;;;;;5.07;1.83;;;;;;;6.26;92.47;102060.41;5026881;28;20029;-67
2023/02/28 07:13:55;;;;;;;0.50;0.50;;;;;;;6.79;93.97;102046.72;5026976;28;20025;-66
2023/02/28 07:16:21;;;;;;;0.40;0.40;;;;;;;7.22;91.58;102056.75;5027064;28;20021;-67
2023/02/28 07:18:47;;;;;;;4.05;2.05;;;;;;;7.56;91.10;102062.97;5025514;28;20076;-65
2023/02/28 07:21:13;;;;;;;0.50;0.50;;;;;;;7.78;87.91;102068.81;5026598;28;20227;-67
2023/02/28 07:23:39;;;;;;;0.68;0.68;;;;;;;8.11;86.05;102073.22;5026964;28;20387;-65
2023/02/28 07:26:05;;;;;;;0.40;0.40;;;;;;;8.44;84.45;102076.69;5026646;28;20057;-66
2023/02/28 07:28:31;;;;;;;1.48;1.38;;;;;;;8.66;80.52;102078.19;5025304;28;20028;-66
2023/02/28 07:30:56;;;;;;;0.60;0.60;;;;;;;8.68;74.59;102073.94;5026562;28;20026;-65
2023/02/28 07:33:23;;;;;;;0.40;0.40;;;;;;;9.38;83.37;102068.69;5026479;28;20029;-66
2023/02/28 07:35:49;;;;;;;0.40;0.40;;;;;;;9.30;82.59;102065.94;5026301;28;20041;-67
2023/02/28 07:38:15;;;;;;;0.77;0.75;;;;;;;9.15;77.53;102072.50;5026533;28;20022;-68
2023/02/28 07:40:40;;;;;;;0.40;0.40;;;;;;;9.49;78.49;102059.47;5026531;28;20025;-67
2023/02/28 07:43:06;;;;;;;0.40;0.40;;;;;;;9.45;80.50;102057.66;5026378;28;20052;-67
2023/02/28 07:45:34;;;;;;;1.35;1.27;;;;;;;9.44;79.85;102060.22;5026202;28;20037;-67
2023/02/28 07:47:59;;;;;;;2.22;2.05;;;;;;;9.11;77.52;102069.78;5026350;28;20022;-68
2023/02/28 07:50:25;;;;;;;10.68;5.57;;;;;;;8.52;75.16;102064.84;5026024;28;20112;-68
2023/02/28 07:52:50;;;;;;;0.50;0.50;;;;;;;8.02;73.10;102073.81;5026062;28;20046;-67
2023/02/28 07:55:16;;;;;;;0.40;0.40;;;;;;;7.64;76.32;102081.28;5026182;28;20022;-68
2023/02/28 07:57:42;;;;;;;0.40;0.40;;;;;;;7.06;77.01;102088.09;5026004;28;20026;-68
2023/02/28 08:00:10;;;;;;;0.45;0.45;;;;;;;6.55;75.84;102081.22;5026223;28;20025;-68
2023/02/28 08:02:35;;;;;;;0.50;0.50;;;;;;;6.05;74.90;102077.72;5024441;28;20030;-68
2023/02/28 08:05:01;;;;;;;0.40;0.40;;;;;;;5.66;74.34;102081.38;5025670;28;20056;-67
2023/02/28 08:07:27;;;;;;;0.47;0.47;;;;;;;5.47;76.99;102077.19;5025978;28;20443;-68
2023/02/28 08:09:52;;;;;;;0.50;0.50;;;;;;;5.35;76.91;102085.34;5025977;28;20039;-69
2023/02/28 08:12:18;;;;;;;0.50;0.50;;;;;;;5.48;78.60;102081.53;5024576;28;20491;-69
2023/02/28 08:14:43;;;;;;;0.50;0.50;;;;;;;5.48;79.53;102090.97;5026233;28;20056;-69
2023/02/28 08:17:10;;;;;;;0.60;0.60;;;;;;;5.51;80.11;102083.38;5026221;28;20022;-68
2023/02/28 08:19:35;;;;;;;1.20;0.85;;;;;;;5.42;81.23;102086.44;5025662;28;20049;-68
2023/02/28 08:22:01;;;;;;;0.68;0.68;;;;;;;5.51;80.79;102085.94;5025789;28;20028;-68
2023/02/28 08:24:26;;;;;;;0.50;0.50;;;;;;;5.91;81.49;102086.63;5025812;28;20069;-67
2023/02/28 08:26:52;;;;;;;0.50;0.50;;;;;;;6.06;80.97;102083.75;5025501;28;20548;-68
2023/02/28 08:29:17;;;;;;;0.50;0.50;;;;;;;6.25;80.70;102090.47;5025861;28;20048;-68
2023/02/28 08:31:43;;;;;;;0.50;0.50;;;;;;;6.50;80.58;102082.75;5025448;28;20136;-66
2023/02/28 08:34:11;;;;;;;2.15;2.05;;;;;;;6.52;81.68;102071.66;5025573;28;20022;-66
2023/02/28 08:36:37;;;;;;;0.40;0.40;;;;;;;6.59;81.82;102077.91;5025430;28;20018;-68
2023/02/28 08:39:03;;;;;;;0.50;0.50;;;;;;;6.60;80.25;102081.38;5025702;28;20034;-66
2023/02/28 08:41:29;;;;;;;0.47;0.47;;;;;;;6.87;80.02;102072.84;5025183;28;20026;-65
2023/02/28 08:43:54;;;;;;;0.63;0.63;;;;;;;7.17;77.20;102080.72;5024083;28;20025;-66
2023/02/28 08:46:20;;;;;;;0.50;0.50;;;;;;;7.66;77.95;102082.22;5025293;28;20036;-67
2023/02/28 08:48:46;;;;;;;0.50;0.50;;;;;;;8.23;79.35;102095.06;5025307;28;20057;-66
2023/02/28 08:51:21;;;;;;;0.50;0.50;;;;;;;9.07;76.37;102084.41;5025054;28;20029;-65
2023/02/28 08:53:49;;;;;;;0.40;0.40;;;;;;;10.04;73.01;102084.88;5025103;28;20046;-66
2023/02/28 08:56:17;;;;;;;0.40;0.40;;;;;;;11.20;72.11;102078.31;5025390;28;20030;-66
2023/02/28 08:58:43;;;;;;;0.40;0.40;;;;;;;11.93;72.61;102086.28;5025388;28;20119;-66
2023/02/28 09:01:11;;;;;;;0.45;0.45;;;;;;;12.50;68.26;102084.41;5029750;28;20014;-66
2023/02/28 09:03:37;;;;;;;0.40;0.40;;;;;;;13.07;67.50;102085.78;5037672;28;20010;-66
2023/02/28 09:06:04;;;;;;;0.40;0.40;;;;;;;13.57;68.37;102082.66;5028102;28;20034;-66
2023/02/28 09:08:30;;;;;;;0.90;0.90;;;;;;;13.95;71.21;102088.94;5025506;28;20030;-66
2023/02/28 09:10:57;;;;;;;0.40;0.40;;;;;;;13.96;68.04;102095.94;5025763;28;20030;-66
2023/02/28 09:13:24;;;;;;;0.40;0.40;;;;;;;14.21;67.32;102090.81;5029010;28;20033;-65
2023/02/28 09:15:49;;;;;;;0.30;0.30;;;;;;;14.38;66.21;102106.53;5026004;28;20026;-66
2023/02/28 09:18:15;;;;;;;0.30;0.30;;;;;;;14.59;64.29;102103.09;5025525;28;20018;-66
2023/02/28 09:20:42;;;;;;;0.93;0.93;;;;;;;14.84;66.15;102108.38;5023644;28;20493;-66
2023/02/28 09:23:09;;;;;;;1.17;1.17;;;;;;;15.22;67.50;102111.88;5024034;28;20033;-67
2023/02/28 09:25:35;;;;;;;0.30;0.30;;;;;;;15.29;68.57;102102.28;5025361;28;20081;-66
2023/02/28 09:28:03;;;;;;;0.30;0.30;;;;;;;15.34;66.24;102105.78;5029017;28;20025;-65
2023/02/28 09:30:30;;;;;;;0.20;0.20;;;;;;;15.52;63.64;102101.41;5028677;28;20030;-65
2023/02/28 09:32:55;;;;;;;0.30;0.30;;;;;;;15.86;63.86;102111.75;5028856;28;20018;-65
2023/02/28 09:35:23;;;;;;;6.95;1.80;;;;;;;16.17;59.58;102107.31;5028657;28;20084;-66
2023/02/28 09:37:51;;;;;;;0.35;0.35;;;;;;;16.38;62.75;102110.69;5027798;28;20028;-65
2023/02/28 09:40:19;;;;;;;0.40;0.40;;;;;;;16.37;58.82;102117.72;5028799;28;20025;-66
2023/02/28 09:42:47;;;;;;;0.28;0.28;;;;;;;15.88;53.63;102110.91;5028579;28;20164;-66
2023/02/28 09:45:28;;;;;;;0.20;0.20;;;;;;;15.33;53.17;102090.97;5028683;28;20026;-66
2023/02/28 09:47:58;;;;;;;0.20;0.20;;;;;;;16.05;59.17;102108.25;5028689;28;20038;-67
2023/02/28 09:50:27;;;;;;;0.52;0.52;;;;;;;16.84;64.01;102099.03;5028311;28;20022;-66
2023/02/28 09:52:54;;;;;;;0.20;0.20;;;;;;;17.14;65.50;102094.44;5028277;28;20056;-66
2023/02/28 09:55:44;;;;;;;0.30;0.30;;;;;;;17.06;63.02;102104.97;5028529;28;20022;-67
2023/02/28 09:58:27;;;;;;;0.75;0.75;;;;;;;17.39;57.02;102103.84;5028266;28;20037;-66
2023/02/28 10:01:21;;;;;;;0.30;0.30;;;;;;;17.97;52.92;102098.84;5028224;28;20053;-66
2023/02/28 10:03:50;;;;;;;0.30;0.30;;;;;;;18.72;59.60;102099.59;5025099;28;20431;-66
2023/02/28 10:06:36;;;;;;;0.20;0.20;;;;;;;18.96;60.83;102098.34;5028168;28;20022;-66
2023/02/28 10:09:06;;;;;;;0.30;0.30;;;;;;;18.87;55.81;102106.38;5028267;28;20030;-66
2023/02/28 10:11:35;;;;;;;0.40;0.40;;;;;;;18.90;53.24;102101.06;5028146;28;20029;-67
2023/02/28 10:14:09;;;;;;;0.20;0.20;;;;;;;19.34;55.49;102105.63;5028084;28;20025;-66
2023/02/28 10:16:35;;;;;;;0.20;0.20;;;;;;;19.89;52.84;102106.31;5028113;28;20021;-67
2023/02/28 10:19:11;;;;;;;0.30;0.30;;;;;;;20.71;54.45;102108.06;5026697;28;20037;-66
2023/02/28 10:21:46;;;;;;;0.30;0.30;;;;;;;21.40;54.49;102112.53;5027769;28;20161;-67
2023/02/28 10:24:41;;;;;;;0.20;0.20;;;;;;;21.76;54.71;102108.00;5028087;28;20026;-65
2023/02/28 10:27:13;;;;;;;0.20;0.20;;;;;;;22.10;48.33;102112.34;5018904;28;20044;-66
2023/02/28 10:29:42;;;;;;;1.65;1.55;;;;;;;22.63;48.71;102115.19;5027836;28;20022;-67
2023/02/28 10:32:12;;;;;;;0.40;0.40;;;;;;;22.85;46.58;102107.41;5026194;28;20483;-65
2023/02/28 10:34:38;;;;;;;0.20;0.20;;;;;;;22.69;48.42;102107.03;5026089;28;20089;-65
2023/02/28 10:37:07;;;;;;;0.20;0.20;;;;;;;22.11;50.29;102114.06;5025321;28;20057;-65
2023/02/28 10:39:45;;;;;;;0.73;0.73;;;;;;;21.55;51.35;102116.50;5026048;28;20096;-66
2023/02/28 10:42:26;;;;;;;0.20;0.20;;;;;;;20.86;46.06;102116.50;5025851;28;20024;-65
2023/02/28 10:45:16;;;;;;;0.20;0.20;;;;;;;20.24;43.92;102124.94;5025866;28;20470;-65
2023/02/28 10:48:04;;;;;;;0.20;0.20;;;;;;;20.39;50.38;102123.75;5025781;28;20030;-65
2023/02/28 10:50:42;;;;;;;1.48;1.38;;;;;;;20.25;52.88;102121.41;5025482;28;20022;-65
2023/02/28 10:53:24;;;;;;;0.57;0.57;;;;;;;19.62;45.31;102123.53;5025316;28;20403;-66
2023/02/28 10:56:08;;;;;;;0.20;0.20;;;;;;;19.53;49.84;102128.09;5025534;28;20262;-65
2023/02/28 10:58:50;;;;;;;0.20;0.20;;;;;;;19.21;44.43;102121.63;5025522;28;20026;-65
2023/02/28 11:01:21;;;;;;;0.20;0.20;;;;;;;19.27;48.78;102116.25;5025351;28;20457;-64
2023/02/28 11:03:47;;;;;;;0.20;0.20;;;;;;;19.49;48.82;102115.00;5025526;28;20061;-65
2023/02/28 11:06:28;;;;;;;0.20;0.20;;;;;;;19.59;46.55;102115.69;5026599;28;20033;-66
2023/02/28 11:09:00;;;;;;;5.03;1.65;;;;;;;19.65;45.31;102123.50;5026034;28;20037;-66
2023/02/28 11:11:28;;;;;;;0.30;0.30;;;;;;;20.13;51.28;102132.22;5027029;28;20022;-66
2023/02/28 11:14:04;;;;;;;0.20;0.20;;;;;;;19.81;47.55;102127.53;5026942;28;20065;-66
2023/02/28 11:16:34;;;;;;;0.30;0.30;;;;;;;19.57;48.65;102124.50;5027300;28;20021;-64
2023/02/28 11:19:01;;;;;;;0.30;0.30;;;;;;;19.44;47.62;102100.16;5027008;28;20040;-66
2023/02/28 11:21:33;;;;;;;0.40;0.40;;;;;;;19.96;48.89;102120.22;5026636;28;20037;-66
2023/02/28 11:24:28;;;;;;;0.30;0.30;;;;;;;20.23;45.78;102102.13;5026799;28;20018;-67
2023/02/28 11:26:54;;;;;;;0.20;0.20;;;;;;;20.11;46.56;102105.03;5026737;28;20033;-66
2023/02/28 11:29:27;;;;;;;0.20;0.20;;;;;;;20.36;46.76;102092.16;5026654;28;20514;-67
2023/02/28 11:32:11;;;;;;;0.20;0.20;;;;;;;20.85;48.56;102088.38;5025286;28;20030;-66
2023/02/28 11:34:38;;;;;;;0.73;0.73;;;;;;;20.74;48.43;102096.56;5026619;28;20029;-66
2023/02/28 11:37:06;;;;;;;0.20;0.20;;;;;;;21.17;49.82;102089.34;5026214;28;20030;-65
2023/02/28 11:39:34;;;;;;;0.60;0.60;;;;;;;20.96;43.74;102075.78;5026731;28;20068;-66
2023/02/28 11:42:06;;;;;;;0.20;0.20;;;;;;;19.90;40.91;102083.47;5026328;28;20029;-67
2023/02/28 11:45:00;;;;;;;0.40;0.40;;;;;;;18.34;47.22;102087.00;5026523;28;20037;-68